Panorama WebCam JadeWeserAirport, sowie die WebCams Emden - Wangerooge - Leer-Papenburg - Baltrum - Juist

Die Wetterinformationen haben nur informativen Charakter und dürfen nicht zum Zwecke der Flugplanung benutzt werden.

METAR EDWI 192120Z AUTO 21006KT 9999 FEW020 SCT060 01/M01 Q1005=
METAR ETNT 192120Z 21007KT 9999 SCT020 BKN180 01/M00 Q1005 BLU
METAR ETMN 192120Z 22009KT 9999 BKN020 01/00 Q1005 WHT

Die WebCams auf Helgoland finden sie hier. WebCams Helgoland